Hazen, Pennsylvania
Current Conditions -  °F | °C
As of 1:35 AM on Saturday 20 Dec 2014 (Local Time) from KDUJ Reporting Station
Broken Clouds Broken Clouds  
Wind Chill: 19°   Ceiling: 1900
Heat Index: 19°   Visibility: 10mi
Dew Point: 17°   Wind: 3mph
Humidity: 92%   Direction: 250°WSW
Pressure: 30.16"   Gusts: NA
Location:  41.1661°N, 79.0421°W
Report Text: KDUJ 200635Z AUTO 25003KT 10SM BKN019 M07/M08 A3016 RMK AO2 T10721083
Loading
Personal Weather Stations






























Interactive Weather Map New forecast layout! Learn more

10-Day Weather Forecast

Advertisements
Track Severe Weather on mobile